createdAt,value
2019-02-28T00:00:57.540Z,14.83
2019-02-28T00:03:26.252Z,15.43
2019-02-28T00:05:54.785Z,15.93
2019-02-28T00:08:22.430Z,15.10
2019-02-28T00:10:50.205Z,17.00
2019-02-28T00:13:21.474Z,15.30
2019-02-28T00:15:47.505Z,15.70
2019-02-28T00:18:16.459Z,15.30
2019-02-28T00:20:44.355Z,15.47
2019-02-28T00:23:12.044Z,15.57
2019-02-28T00:25:39.785Z,15.23
2019-02-28T00:28:07.485Z,15.40
2019-02-28T00:30:37.447Z,15.10
2019-02-28T00:33:04.629Z,14.53
2019-02-28T00:35:32.322Z,15.17
2019-02-28T00:37:59.973Z,15.27
2019-02-28T00:40:29.441Z,14.73
2019-02-28T00:42:57.146Z,15.50
2019-02-28T00:45:24.961Z,16.30
2019-02-28T00:47:52.650Z,14.27
2019-02-28T00:50:20.364Z,14.53
2019-02-28T00:52:48.058Z,15.50
2019-02-28T00:55:15.869Z,15.60
2019-02-28T00:57:43.549Z,14.90
2019-02-28T01:00:11.921Z,15.87
2019-02-28T01:02:39.567Z,16.13
2019-02-28T01:05:07.273Z,15.53
2019-02-28T01:07:34.939Z,15.30
2019-02-28T01:10:04.529Z,17.03
2019-02-28T01:12:32.476Z,15.70
2019-02-28T01:15:00.326Z,16.97
2019-02-28T01:17:27.949Z,16.67
2019-02-28T01:19:55.680Z,16.70
2019-02-28T01:22:26.826Z,17.10
2019-02-28T01:24:54.636Z,17.53
2019-02-28T01:27:22.351Z,16.77
2019-02-28T01:29:50.071Z,16.43
2019-02-28T01:32:17.749Z,16.37
2019-02-28T01:34:45.397Z,18.00
2019-02-28T01:37:13.134Z,16.40
2019-02-28T01:39:40.792Z,17.10
2019-02-28T01:42:08.495Z,16.30
2019-02-28T01:44:36.517Z,18.97
2019-02-28T01:47:04.252Z,18.10
2019-02-28T01:49:31.890Z,17.17
2019-02-28T01:51:59.652Z,19.93
2019-02-28T01:54:27.780Z,18.20
2019-02-28T01:56:56.286Z,19.43
2019-02-28T01:59:24.054Z,20.47
2019-02-28T02:01:51.763Z,19.23
2019-02-28T02:04:19.435Z,20.77
2019-02-28T02:06:47.501Z,19.23
2019-02-28T02:09:15.228Z,20.10
2019-02-28T02:11:42.962Z,20.07
2019-02-28T02:14:11.044Z,20.13
2019-02-28T02:16:39.642Z,18.93
2019-02-28T02:19:07.363Z,19.57
2019-02-28T02:21:35.648Z,18.83
2019-02-28T02:24:03.499Z,19.77
2019-02-28T02:26:31.218Z,20.27
2019-02-28T02:29:01.192Z,19.23
2019-02-28T02:31:29.205Z,18.97
2019-02-28T02:33:57.057Z,21.17
2019-02-28T02:36:24.766Z,21.20
2019-02-28T02:38:52.515Z,21.33
2019-02-28T02:41:20.160Z,19.57
2019-02-28T02:43:47.829Z,19.80
2019-02-28T02:46:20.222Z,20.67
2019-02-28T02:48:44.943Z,21.53
2019-02-28T02:51:12.809Z,20.37
2019-02-28T02:53:41.906Z,21.13
2019-02-28T02:56:10.239Z,21.67
2019-02-28T02:58:37.926Z,21.63
2019-02-28T03:01:05.671Z,21.87
2019-02-28T03:03:33.349Z,22.40
2019-02-28T03:06:01.067Z,23.47
2019-02-28T03:08:35.670Z,22.97
2019-02-28T03:10:58.416Z,23.03
2019-02-28T03:13:26.158Z,22.10
2019-02-28T03:15:53.829Z,22.13
2019-02-28T03:18:21.854Z,22.20
2019-02-28T03:20:49.646Z,21.70
2019-02-28T03:23:17.349Z,22.40
2019-02-28T03:25:45.092Z,22.03
2019-02-28T03:28:14.031Z,23.33
2019-02-28T03:30:41.980Z,24.33
2019-02-28T03:33:23.801Z,24.57
2019-02-28T03:35:43.414Z,22.73
2019-02-28T03:38:11.603Z,22.37
2019-02-28T03:40:40.250Z,23.60
2019-02-28T03:43:07.772Z,24.30
2019-02-28T03:45:35.532Z,24.03
2019-02-28T03:48:03.197Z,23.70
2019-02-28T03:50:30.941Z,25.17
2019-02-28T03:52:58.620Z,24.33
2019-02-28T03:55:26.340Z,25.70
2019-02-28T03:57:54.050Z,24.83
2019-02-28T04:00:21.816Z,25.67
2019-02-28T04:02:57.028Z,23.67
2019-02-28T04:05:26.687Z,26.73
2019-02-28T04:07:52.759Z,25.27
2019-02-28T04:10:22.044Z,27.37
2019-02-28T04:12:47.760Z,25.60
2019-02-28T04:15:15.731Z,28.13
2019-02-28T04:17:43.394Z,27.40
2019-02-28T04:20:11.147Z,28.53
2019-02-28T04:22:38.875Z,28.07
2019-02-28T04:25:06.658Z,27.40
2019-02-28T04:27:34.386Z,27.13
2019-02-28T04:30:06.612Z,29.37
2019-02-28T04:32:31.809Z,28.87
2019-02-28T04:34:59.491Z,27.33
2019-02-28T04:37:27.156Z,28.57
2019-02-28T04:39:54.884Z,27.67
2019-02-28T04:42:22.558Z,30.43
2019-02-28T04:44:51.937Z,29.43
2019-02-28T04:47:19.824Z,29.43
2019-02-28T04:49:47.471Z,29.17
2019-02-28T04:52:15.145Z,30.63
2019-02-28T04:54:42.813Z,31.30
2019-02-28T04:57:10.522Z,30.93
2019-02-28T04:59:38.206Z,30.97
2019-02-28T05:02:05.972Z,31.00
2019-02-28T05:04:36.155Z,31.73
2019-02-28T05:07:03.264Z,30.10
2019-02-28T05:09:30.925Z,32.40
2019-02-28T05:11:58.597Z,31.90
2019-02-28T05:14:26.382Z,31.87
2019-02-28T05:16:54.166Z,31.97
2019-02-28T05:19:21.920Z,33.50
2019-02-28T05:21:50.658Z,32.67
2019-02-28T05:24:19.163Z,34.43
2019-02-28T05:26:46.902Z,31.97
2019-02-28T05:29:14.946Z,35.20
2019-02-28T05:31:42.663Z,33.90
2019-02-28T05:34:13.235Z,34.60
2019-02-28T05:36:39.943Z,33.80
2019-02-28T05:39:07.731Z,36.87
2019-02-28T05:41:36.268Z,36.03
2019-02-28T05:44:06.306Z,39.10
2019-02-28T05:46:33.948Z,38.57
2019-02-28T05:49:01.877Z,38.60
2019-02-28T05:51:29.580Z,37.83
2019-02-28T05:53:57.680Z,39.10
2019-02-28T05:56:25.728Z,40.13
2019-02-28T05:58:53.448Z,38.57
2019-02-28T06:01:21.159Z,39.60
2019-02-28T06:03:48.874Z,40.20
2019-02-28T06:06:17.213Z,40.80
2019-02-28T06:08:46.215Z,42.47
2019-02-28T06:11:15.350Z,39.03
2019-02-28T06:13:43.429Z,42.27
2019-02-28T06:16:12.296Z,41.40
2019-02-28T06:18:40.316Z,40.57
2019-02-28T06:21:10.444Z,41.13
2019-02-28T06:23:40.813Z,42.33
2019-02-28T06:26:08.009Z,41.43
2019-02-28T06:28:35.783Z,42.20
2019-02-28T06:31:03.507Z,42.40
2019-02-28T06:33:33.741Z,41.67
2019-02-28T06:36:00.701Z,45.13
2019-02-28T06:38:28.434Z,44.47
2019-02-28T06:40:56.266Z,46.27
2019-02-28T06:43:24.009Z,46.00
2019-02-28T06:45:51.792Z,47.13
2019-02-28T06:48:20.409Z,48.33
2019-02-28T06:50:49.162Z,46.83
2019-02-28T06:53:16.974Z,48.30
2019-02-28T06:55:47.928Z,48.53
2019-02-28T06:58:16.755Z,44.73
2019-02-28T07:00:47.413Z,44.67
2019-02-28T07:03:14.082Z,45.77
2019-02-28T07:05:41.823Z,47.53
2019-02-28T07:08:09.679Z,46.40
2019-02-28T07:10:37.484Z,44.47
2019-02-28T07:13:05.659Z,47.00
2019-02-28T07:15:33.561Z,46.27
2019-02-28T07:18:01.377Z,48.07
2019-02-28T07:20:29.080Z,44.83
2019-02-28T07:22:56.825Z,46.33
2019-02-28T07:25:24.548Z,46.23
2019-02-28T07:27:52.277Z,44.53
2019-02-28T07:30:20.080Z,45.93
2019-02-28T07:32:47.889Z,47.00
2019-02-28T07:35:15.643Z,46.83
2019-02-28T07:37:43.375Z,46.53
2019-02-28T07:40:15.581Z,44.90
2019-02-28T07:42:41.190Z,44.90
2019-02-28T07:45:12.093Z,47.57
2019-02-28T07:47:39.868Z,45.07
2019-02-28T07:50:10.780Z,46.43
2019-02-28T07:52:37.404Z,45.93
2019-02-28T07:55:06.126Z,45.03
2019-02-28T07:57:33.864Z,44.13
2019-02-28T08:00:01.618Z,45.93
2019-02-28T08:02:29.404Z,42.37
2019-02-28T08:04:58.010Z,42.40
2019-02-28T08:07:25.729Z,41.60
2019-02-28T08:09:53.439Z,40.03
2019-02-28T08:12:21.222Z,41.33
2019-02-28T08:14:48.953Z,41.10
2019-02-28T08:17:16.637Z,41.43
2019-02-28T08:19:44.440Z,41.67
2019-02-28T08:22:12.272Z,42.23
2019-02-28T08:24:39.983Z,40.03
2019-02-28T08:27:07.797Z,39.97
2019-02-28T08:29:35.503Z,40.90
2019-02-28T08:32:06.725Z,41.30
2019-02-28T08:34:33.076Z,40.60
2019-02-28T08:37:00.858Z,39.03
2019-02-28T08:39:28.582Z,40.33
2019-02-28T08:42:02.803Z,39.37
2019-02-28T08:44:25.832Z,38.57
2019-02-28T08:46:53.650Z,41.07
2019-02-28T08:49:21.446Z,39.07
2019-02-28T08:51:49.243Z,39.30
2019-02-28T08:54:16.981Z,37.97
2019-02-28T08:56:49.118Z,38.87
2019-02-28T08:59:18.172Z,39.80
2019-02-28T09:01:44.287Z,38.47
2019-02-28T09:04:12.165Z,38.10
2019-02-28T09:06:40.896Z,39.33
2019-02-28T09:09:10.928Z,37.87
2019-02-28T09:11:38.697Z,36.93
2019-02-28T09:14:06.441Z,37.77
2019-02-28T09:16:36.732Z,39.40
2019-02-28T09:19:04.206Z,38.80
2019-02-28T09:21:31.930Z,38.67
2019-02-28T09:23:59.727Z,37.13
2019-02-28T09:26:28.287Z,38.00
2019-02-28T09:28:57.075Z,37.77
2019-02-28T09:31:27.028Z,37.47
2019-02-28T09:33:55.371Z,35.00
2019-02-28T09:36:24.339Z,38.20
2019-02-28T09:38:57.086Z,35.80
2019-02-28T09:41:21.901Z,35.77
2019-02-28T09:43:49.731Z,37.20
2019-02-28T09:46:18.728Z,35.30
2019-02-28T09:48:46.620Z,36.80
2019-02-28T09:51:14.336Z,35.73
2019-02-28T09:53:42.076Z,37.03
2019-02-28T09:56:10.151Z,35.13
2019-02-28T09:58:38.108Z,34.57
2019-02-28T10:01:05.862Z,36.40
2019-02-28T10:03:34.671Z,33.67
2019-02-28T10:06:02.460Z,35.37
2019-02-28T10:08:30.291Z,35.37
2019-02-28T10:10:58.006Z,32.27
2019-02-28T10:13:27.258Z,34.23
2019-02-28T10:15:55.015Z,33.20
2019-02-28T10:18:24.834Z,30.73
2019-02-28T10:20:52.632Z,30.33
2019-02-28T10:23:21.439Z,31.20
2019-02-28T10:25:49.841Z,29.70
2019-02-28T10:28:17.560Z,30.97
2019-02-28T10:30:47.267Z,31.37
2019-02-28T10:33:17.393Z,32.33
2019-02-28T10:35:44.418Z,29.77
2019-02-28T10:38:12.176Z,29.70
2019-02-28T10:40:39.862Z,30.53
2019-02-28T10:43:07.625Z,28.97
2019-02-28T10:45:40.841Z,30.57
2019-02-28T10:48:04.873Z,29.67
2019-02-28T10:50:33.607Z,30.33
2019-02-28T10:53:05.447Z,30.43
2019-02-28T10:55:31.153Z,30.10
2019-02-28T10:57:58.935Z,29.23
2019-02-28T11:00:32.846Z,30.07
2019-02-28T11:03:00.126Z,29.33
2019-02-28T11:05:33.531Z,29.10
2019-02-28T11:08:02.493Z,30.70
2019-02-28T11:10:37.650Z,30.03
2019-02-28T11:13:08.849Z,30.33
2019-02-28T11:15:36.529Z,29.50
2019-02-28T11:18:08.624Z,31.80
2019-02-28T11:20:35.062Z,32.50
2019-02-28T11:23:03.483Z,33.43
2019-02-28T11:25:34.652Z,31.40
2019-02-28T11:28:00.923Z,34.00
2019-02-28T11:30:28.883Z,34.67
2019-02-28T11:32:57.037Z,32.97
2019-02-28T11:35:24.836Z,33.20
2019-02-28T11:37:52.498Z,34.90
2019-02-28T11:40:21.434Z,34.33
2019-02-28T11:42:49.082Z,35.47
2019-02-28T11:45:21.582Z,35.03
2019-02-28T11:47:49.688Z,36.10
2019-02-28T11:50:17.426Z,35.20
2019-02-28T11:52:45.204Z,35.90
2019-02-28T11:55:13.237Z,38.23
2019-02-28T11:57:41.917Z,36.83
2019-02-28T12:00:18.774Z,37.67
2019-02-28T12:02:53.064Z,40.67
2019-02-28T12:05:16.558Z,40.27
2019-02-28T12:07:44.417Z,38.50
2019-02-28T12:10:12.246Z,37.97
2019-02-28T12:12:41.565Z,40.27
2019-02-28T12:15:10.995Z,41.70
2019-02-28T12:17:38.716Z,43.40
2019-02-28T12:20:08.134Z,42.47
2019-02-28T12:22:35.809Z,46.17
2019-02-28T12:25:04.561Z,48.50
2019-02-28T12:27:33.868Z,46.40
2019-02-28T12:30:01.619Z,48.03
2019-02-28T12:32:29.317Z,49.93
2019-02-28T12:34:57.004Z,46.53
2019-02-28T12:37:24.671Z,47.63
2019-02-28T12:39:52.346Z,46.37
2019-02-28T12:42:20.052Z,48.47
2019-02-28T12:44:49.039Z,50.33
2019-02-28T12:47:17.367Z,49.93
2019-02-28T12:49:45.054Z,50.90
2019-02-28T12:52:14.579Z,52.53
2019-02-28T12:54:42.302Z,52.00
2019-02-28T12:57:10.302Z,49.63
2019-02-28T12:59:37.999Z,47.13
2019-02-28T13:02:08.532Z,47.33
2019-02-28T13:04:36.999Z,44.90
2019-02-28T13:07:04.664Z,42.57
2019-02-28T13:09:32.381Z,41.27
2019-02-28T13:12:00.139Z,39.57
2019-02-28T13:14:27.883Z,34.60
2019-02-28T13:16:57.586Z,36.67
2019-02-28T13:19:25.135Z,35.57
2019-02-28T13:21:52.850Z,35.73
2019-02-28T13:24:20.603Z,34.00
2019-02-28T13:26:48.299Z,34.27
2019-02-28T13:29:15.954Z,36.10
2019-02-28T13:31:43.675Z,36.10
2019-02-28T13:34:11.328Z,35.23
2019-02-28T13:36:39.090Z,36.57
2019-02-28T13:39:08.044Z,36.10
2019-02-28T13:41:35.833Z,35.67
2019-02-28T13:44:03.527Z,35.53
2019-02-28T13:46:33.898Z,37.40
2019-02-28T13:49:01.126Z,40.37
2019-02-28T13:51:28.867Z,42.37
2019-02-28T13:53:56.611Z,44.67
2019-02-28T13:56:24.385Z,45.13
2019-02-28T13:58:53.636Z,46.10
2019-02-28T14:01:21.740Z,45.60
2019-02-28T14:03:49.535Z,45.90
2019-02-28T14:06:19.816Z,47.93
2019-02-28T14:08:47.754Z,49.13
2019-02-28T14:11:16.911Z,45.47
2019-02-28T14:13:44.661Z,47.70
2019-02-28T14:16:12.489Z,46.43
2019-02-28T14:18:42.486Z,41.93
2019-02-28T14:21:10.088Z,43.63
2019-02-28T14:23:38.090Z,40.57
2019-02-28T14:26:05.996Z,40.87
2019-02-28T14:28:36.595Z,40.37
2019-02-28T14:31:04.316Z,41.13
2019-02-28T14:33:32.436Z,41.87
2019-02-28T14:36:00.116Z,42.00
2019-02-28T14:38:29.637Z,40.50
2019-02-28T14:40:59.297Z,39.50
2019-02-28T14:43:26.640Z,39.27
2019-02-28T14:45:54.370Z,38.70
2019-02-28T14:48:21.902Z,39.30
2019-02-28T14:50:50.644Z,36.60
2019-02-28T14:53:19.084Z,37.07
2019-02-28T14:55:46.789Z,40.00
2019-02-28T14:58:14.514Z,37.17
2019-02-28T15:00:43.411Z,37.93
2019-02-28T15:03:11.214Z,35.53
2019-02-28T15:05:38.858Z,37.67
2019-02-28T15:08:06.483Z,35.60
2019-02-28T15:10:35.167Z,33.90
2019-02-28T15:13:04.765Z,32.13
2019-02-28T15:15:32.731Z,29.73
2019-02-28T15:18:00.384Z,29.87
2019-02-28T15:20:31.528Z,28.83
2019-02-28T15:22:59.679Z,29.33
2019-02-28T15:25:27.165Z,26.67
2019-02-28T15:27:54.782Z,24.80
2019-02-28T15:30:27.316Z,24.53
2019-02-28T15:32:55.602Z,24.60
2019-02-28T15:35:23.357Z,23.53
2019-02-28T15:37:51.221Z,24.10
2019-02-28T15:40:26.526Z,22.50
2019-02-28T15:42:54.309Z,21.63
2019-02-28T15:45:22.091Z,22.00
2019-02-28T15:47:55.420Z,22.13
2019-02-28T15:50:22.105Z,21.10
2019-02-28T15:52:49.879Z,19.37
2019-02-28T15:55:17.620Z,17.73
2019-02-28T15:57:45.266Z,17.37
2019-02-28T16:00:15.723Z,16.47
2019-02-28T16:02:43.374Z,17.47
2019-02-28T16:05:11.346Z,18.43
2019-02-28T16:07:39.030Z,17.53
2019-02-28T16:10:08.563Z,17.90
2019-02-28T16:12:38.554Z,17.67
2019-02-28T16:15:08.693Z,17.30
2019-02-28T16:17:37.404Z,17.50
2019-02-28T16:20:05.564Z,16.23
2019-02-28T16:22:33.278Z,16.43
2019-02-28T16:25:00.904Z,16.23
2019-02-28T16:27:29.588Z,15.80
2019-02-28T16:29:58.011Z,15.73
2019-02-28T16:32:25.657Z,15.70
2019-02-28T16:34:53.297Z,15.53
2019-02-28T16:37:20.990Z,14.60
2019-02-28T16:39:49.154Z,14.13
2019-02-28T16:42:17.563Z,14.17
2019-02-28T16:44:45.273Z,14.10
2019-02-28T16:47:12.941Z,14.87
2019-02-28T16:49:41.456Z,13.13
2019-02-28T16:52:10.108Z,13.13
2019-02-28T16:54:37.739Z,11.53
2019-02-28T16:57:05.466Z,12.83
2019-02-28T16:59:33.125Z,11.43
2019-02-28T17:02:00.826Z,11.47
2019-02-28T17:04:28.460Z,11.03
2019-02-28T17:06:56.092Z,10.30
2019-02-28T17:09:30.256Z,9.83
2019-02-28T17:12:04.433Z,9.60
2019-02-28T17:14:32.104Z,9.20
2019-02-28T17:17:11.900Z,9.57
2019-02-28T17:19:39.598Z,9.10
2019-02-28T17:22:08.155Z,7.60
2019-02-28T17:24:35.732Z,8.20
2019-02-28T17:27:19.834Z,7.80
2019-02-28T17:30:12.970Z,7.57
2019-02-28T17:32:40.764Z,8.23
2019-02-28T17:35:08.687Z,7.27
2019-02-28T17:37:36.367Z,7.07
2019-02-28T17:40:04.969Z,6.47
2019-02-28T17:42:32.750Z,7.37
2019-02-28T17:45:19.663Z,6.83
2019-02-28T17:48:34.019Z,7.33
2019-02-28T17:51:14.965Z,7.93
2019-02-28T17:54:17.301Z,8.67
2019-02-28T17:57:07.547Z,8.67
2019-02-28T18:00:18.689Z,8.90
2019-02-28T18:03:09.749Z,8.53
2019-02-28T18:06:26.499Z,8.70
2019-02-28T18:09:34.814Z,8.30
2019-02-28T18:12:14.350Z,8.27
2019-02-28T18:15:12.915Z,8.47
2019-02-28T18:18:21.051Z,9.13
2019-02-28T18:21:04.400Z,10.60
2019-02-28T18:24:17.058Z,10.27
2019-02-28T18:27:22.503Z,10.43
2019-02-28T18:30:23.875Z,9.80
2019-02-28T18:32:51.614Z,8.13
2019-02-28T18:35:19.231Z,7.57
2019-02-28T18:37:46.877Z,8.37
2019-02-28T18:40:14.522Z,7.57
2019-02-28T18:42:42.141Z,8.10
2019-02-28T18:45:09.909Z,8.53
2019-02-28T18:47:39.838Z,8.73
2019-02-28T18:50:07.147Z,8.70
2019-02-28T18:52:34.863Z,9.13
2019-02-28T18:55:05.962Z,9.57
2019-02-28T18:57:31.879Z,9.07
2019-02-28T18:59:59.536Z,9.73
2019-02-28T19:02:28.998Z,9.67
2019-02-28T19:04:56.719Z,9.10
2019-02-28T19:07:24.321Z,9.87
2019-02-28T19:09:51.989Z,8.43
2019-02-28T19:12:19.605Z,8.60
2019-02-28T19:14:47.290Z,8.47
2019-02-28T19:17:15.042Z,8.67
2019-02-28T19:19:42.680Z,7.53
2019-02-28T19:22:10.346Z,7.87
2019-02-28T19:24:38.006Z,7.47
2019-02-28T19:27:05.579Z,7.30
2019-02-28T19:29:33.257Z,6.73
2019-02-28T19:32:00.863Z,6.70
2019-02-28T19:34:28.483Z,7.63
2019-02-28T19:36:56.170Z,6.90
2019-02-28T19:39:23.854Z,6.57
2019-02-28T19:41:51.499Z,6.27
2019-02-28T19:44:19.238Z,6.63
2019-02-28T19:46:46.870Z,6.30
2019-02-28T19:49:14.552Z,6.37
2019-02-28T19:51:42.233Z,6.33
2019-02-28T19:54:09.929Z,7.57
2019-02-28T19:56:37.563Z,8.37
2019-02-28T19:59:05.162Z,8.27
2019-02-28T20:01:32.782Z,9.03
2019-02-28T20:04:00.398Z,9.13
2019-02-28T20:06:29.204Z,9.40
2019-02-28T20:08:56.829Z,10.57
2019-02-28T20:11:24.795Z,11.47
2019-02-28T20:13:52.378Z,9.63
2019-02-28T20:16:20.025Z,10.00
2019-02-28T20:18:47.631Z,10.17
2019-02-28T20:21:15.274Z,9.93
2019-02-28T20:23:42.905Z,11.00
2019-02-28T20:26:10.616Z,10.93
2019-02-28T20:28:39.141Z,10.80
2019-02-28T20:31:06.851Z,11.33
2019-02-28T20:33:34.455Z,10.30
2019-02-28T20:36:02.166Z,11.50
2019-02-28T20:38:29.886Z,12.57
2019-02-28T20:40:57.505Z,12.13
2019-02-28T20:43:25.136Z,12.30
2019-02-28T20:45:52.859Z,11.63
2019-02-28T20:48:20.518Z,13.37
2019-02-28T20:50:48.257Z,12.67
2019-02-28T20:53:16.344Z,13.17
2019-02-28T20:55:44.054Z,13.27
2019-02-28T20:58:11.651Z,13.43
2019-02-28T21:00:39.307Z,13.83
2019-02-28T21:03:06.917Z,12.33
2019-02-28T21:05:34.556Z,12.53
2019-02-28T21:08:02.111Z,11.73
2019-02-28T21:10:29.907Z,11.60
2019-02-28T21:12:57.514Z,10.73
2019-02-28T21:15:25.179Z,11.03
2019-02-28T21:17:52.795Z,10.10
2019-02-28T21:20:20.482Z,11.23
2019-02-28T21:22:48.125Z,12.20
2019-02-28T21:25:15.828Z,12.33
2019-02-28T21:27:43.483Z,11.87
2019-02-28T21:30:14.398Z,12.83
2019-02-28T21:32:42.029Z,12.63
2019-02-28T21:35:10.125Z,13.70
2019-02-28T21:37:37.686Z,14.47
2019-02-28T21:40:05.618Z,14.53
2019-02-28T21:42:33.214Z,15.10
2019-02-28T21:45:00.856Z,15.77
2019-02-28T21:47:28.419Z,14.80
2019-02-28T21:49:56.029Z,15.87
2019-02-28T21:52:23.688Z,14.57
2019-02-28T21:54:51.295Z,14.70
2019-02-28T21:57:18.961Z,14.47
2019-02-28T21:59:46.575Z,14.60
2019-02-28T22:02:14.227Z,14.63
2019-02-28T22:04:41.914Z,14.37
2019-02-28T22:07:09.607Z,17.40
2019-02-28T22:09:37.254Z,17.83
2019-02-28T22:12:04.973Z,15.47
2019-02-28T22:14:32.613Z,17.17
2019-02-28T22:17:00.245Z,15.03
2019-02-28T22:19:27.878Z,15.40
2019-02-28T22:21:55.565Z,15.50
2019-02-28T22:24:23.185Z,14.37
2019-02-28T22:26:50.878Z,14.53
2019-02-28T22:29:18.494Z,16.23
2019-02-28T22:32:11.419Z,16.13
2019-02-28T22:34:52.844Z,16.33
2019-02-28T22:37:20.596Z,15.67
2019-02-28T22:39:48.218Z,16.80
2019-02-28T22:42:22.012Z,16.60
2019-02-28T22:44:45.299Z,16.97
2019-02-28T22:47:13.028Z,15.80
2019-02-28T22:49:40.639Z,17.90
2019-02-28T22:52:08.289Z,17.30
2019-02-28T22:54:35.900Z,18.10
2019-02-28T22:57:03.547Z,17.03
2019-02-28T22:59:31.243Z,15.87
2019-02-28T23:01:58.986Z,16.47
2019-02-28T23:04:26.577Z,16.97
2019-02-28T23:06:54.263Z,17.80
2019-02-28T23:09:22.039Z,17.30
2019-02-28T23:11:49.719Z,17.73
2019-02-28T23:14:17.374Z,16.57
2019-02-28T23:16:45.037Z,16.50
2019-02-28T23:19:12.697Z,15.90
2019-02-28T23:21:40.383Z,16.17
2019-02-28T23:24:08.061Z,17.53
2019-02-28T23:27:11.242Z,17.20
2019-02-28T23:29:41.919Z,14.80
2019-02-28T23:32:36.737Z,15.07
2019-02-28T23:35:07.048Z,14.23
2019-02-28T23:37:34.702Z,14.10
2019-02-28T23:40:02.343Z,13.17
2019-02-28T23:42:29.994Z,12.70
2019-02-28T23:44:57.695Z,13.87
2019-02-28T23:47:25.410Z,12.87
2019-02-28T23:49:53.022Z,12.97
2019-02-28T23:52:20.713Z,12.80
2019-02-28T23:54:48.301Z,13.00
2019-02-28T23:57:15.954Z,12.97
2019-02-28T23:59:43.557Z,11.90
